Terminal Aerodrome Forecast
Issued by NWS

Home | Current Version | Previous Version | Text Only | Print | Product List | Glossary On
Versions: 1 2 3 4 5 6 7 8 9 10 11 12 13 14
000
FTUS46 KLOX 262300
TAFBUR
TAF
KBUR 262331Z 2700/2724 17008KT P6SM SCT250
     FM270300 VRB03KT P6SM SCT250
     FM271100 VRB03KT 5SM BR SCT250
     FM271800 VRB03KT P6SM BKN100
     FM272100 17008KT P6SM BKN080=

USA.gov is the U.S. government's official web portal to all federal, state and local government web resources and services.